Oldtown, Kentucky
Current Conditions -  °F | °C
As of 3:15 AM on Sunday 26 Oct 2014 (Local Time) from KDWU Reporting Station
Overcast Overcast  
Wind Chill: 50°   Ceiling: 200
Heat Index: 50°   Visibility: 0.25mi
Dew Point: 46°   Wind: 0mph
Humidity: 87%   Direction: NA
Pressure: 29.89"   Gusts: NA
Location:  38.5266°N, 82.9452°W
Report Text: KDWU 260715Z AUTO 00000KT 1/4SM OVC002 10/08 A2989 RMK AO1
Loading
Personal Weather Stations






























Interactive Weather Map
Tropical Storm Tracking
New forecast layout! Learn more

10-Day Weather Forecast

Advertisements
Track Severe Weather on mobile